createdAt,value
2019-02-10T00:01:00.604Z,1.22
2019-02-10T00:02:04.921Z,1.12
2019-02-10T00:03:08.551Z,0.95
2019-02-10T00:04:12.247Z,0.90
2019-02-10T00:05:15.963Z,0.98
2019-02-10T00:06:24.630Z,1.08
2019-02-10T00:07:25.034Z,1.10
2019-02-10T00:08:28.736Z,1.13
2019-02-10T00:09:32.347Z,1.05
2019-02-10T00:10:35.983Z,0.97
2019-02-10T00:11:39.751Z,0.88
2019-02-10T00:12:46.376Z,0.87
2019-02-10T00:13:50.012Z,0.85
2019-02-10T00:14:53.676Z,0.77
2019-02-10T00:15:59.382Z,0.74
2019-02-10T00:17:03.238Z,0.77
2019-02-10T00:18:06.941Z,0.73
2019-02-10T00:19:10.573Z,0.68
2019-02-10T00:20:14.264Z,0.62
2019-02-10T00:21:17.893Z,0.68
2019-02-10T00:22:21.921Z,0.69
2019-02-10T00:23:25.578Z,0.70
2019-02-10T00:24:29.419Z,0.80
2019-02-10T00:25:33.082Z,0.86
2019-02-10T00:26:36.721Z,0.90
2019-02-10T00:27:40.356Z,0.89
2019-02-10T00:28:43.985Z,0.74
2019-02-10T00:29:47.619Z,0.72
2019-02-10T00:30:51.551Z,0.62
2019-02-10T00:31:55.260Z,0.55
2019-02-10T00:32:58.976Z,0.57
2019-02-10T00:34:02.615Z,0.59
2019-02-10T00:35:06.253Z,0.58
2019-02-10T00:36:09.916Z,0.59
2019-02-10T00:37:13.549Z,0.67
2019-02-10T00:38:17.199Z,0.75
2019-02-10T00:39:20.829Z,0.77
2019-02-10T00:40:24.463Z,0.80
2019-02-10T00:41:28.522Z,0.85
2019-02-10T00:42:32.230Z,0.87
2019-02-10T00:43:35.937Z,0.82
2019-02-10T00:44:39.571Z,0.69
2019-02-10T00:45:43.274Z,0.64
2019-02-10T00:46:46.949Z,0.62
2019-02-10T00:47:50.582Z,0.66
2019-02-10T00:48:54.153Z,0.56
2019-02-10T00:49:57.721Z,0.50
2019-02-10T00:51:01.362Z,0.52
2019-02-10T00:52:05.034Z,0.58
2019-02-10T00:53:08.668Z,0.64
2019-02-10T00:54:12.322Z,0.69
2019-02-10T00:55:16.035Z,0.78
2019-02-10T00:56:19.732Z,0.83
2019-02-10T00:57:23.332Z,0.90
2019-02-10T00:58:27.010Z,0.96
2019-02-10T00:59:30.652Z,0.80
2019-02-10T01:00:34.544Z,0.66
2019-02-10T01:01:38.186Z,0.68
2019-02-10T01:02:41.853Z,0.62
2019-02-10T01:03:45.348Z,0.61
2019-02-10T01:04:48.985Z,0.46
2019-02-10T01:05:52.722Z,0.42
2019-02-10T01:06:56.356Z,0.47
2019-02-10T01:08:00.027Z,0.52
2019-02-10T01:09:04.841Z,0.60
2019-02-10T01:10:09.740Z,0.67
2019-02-10T01:11:13.743Z,0.68
2019-02-10T01:12:18.568Z,0.70
2019-02-10T01:13:22.245Z,0.68
2019-02-10T01:14:26.257Z,0.65
2019-02-10T01:15:29.896Z,0.58
2019-02-10T01:16:33.534Z,0.54
2019-02-10T01:17:37.174Z,0.49
2019-02-10T01:18:43.755Z,0.39
2019-02-10T01:19:47.391Z,0.28
2019-02-10T01:20:51.021Z,0.23
2019-02-10T01:21:54.674Z,0.25
2019-02-10T01:22:58.665Z,0.37
2019-02-10T01:24:02.336Z,0.45
2019-02-10T01:25:07.769Z,0.51
2019-02-10T01:26:11.430Z,0.57
2019-02-10T01:27:15.056Z,0.64
2019-02-10T01:28:18.691Z,0.63
2019-02-10T01:29:22.368Z,0.67
2019-02-10T01:30:26.105Z,0.61
2019-02-10T01:31:29.734Z,0.54
2019-02-10T01:32:33.370Z,0.46
2019-02-10T01:33:37.380Z,0.38
2019-02-10T01:34:41.016Z,0.30
2019-02-10T01:35:44.651Z,0.31
2019-02-10T01:36:50.040Z,0.33
2019-02-10T01:37:54.042Z,0.37
2019-02-10T01:38:57.747Z,0.50
2019-02-10T01:40:01.434Z,0.58
2019-02-10T01:41:05.118Z,0.66
2019-02-10T01:42:08.831Z,0.72
2019-02-10T01:43:12.471Z,0.74
2019-02-10T01:44:16.035Z,0.77
2019-02-10T01:45:19.700Z,0.71
2019-02-10T01:46:23.355Z,0.66
2019-02-10T01:47:27.079Z,0.57
2019-02-10T01:48:30.723Z,0.42
2019-02-10T01:49:34.295Z,0.34
2019-02-10T01:50:37.967Z,0.27
2019-02-10T01:51:41.669Z,0.28
2019-02-10T01:52:45.294Z,0.34
2019-02-10T01:53:49.283Z,0.41
2019-02-10T01:54:52.930Z,0.48
2019-02-10T01:55:56.580Z,0.47
2019-02-10T01:57:00.215Z,0.58
2019-02-10T01:58:03.859Z,0.61
2019-02-10T01:59:07.505Z,0.56
2019-02-10T02:00:14.143Z,0.50
2019-02-10T02:01:18.511Z,0.37
2019-02-10T02:02:22.167Z,0.26
2019-02-10T02:03:25.795Z,0.20
2019-02-10T02:04:29.437Z,0.18
2019-02-10T02:05:33.076Z,0.13
2019-02-10T02:06:36.735Z,0.12
2019-02-10T02:07:40.376Z,0.09
2019-02-10T02:08:44.022Z,0.08
2019-02-10T02:09:47.915Z,0.18
2019-02-10T02:10:51.556Z,0.26
2019-02-10T02:11:55.229Z,0.30
2019-02-10T02:12:59.256Z,0.37
2019-02-10T02:14:02.984Z,0.42
2019-02-10T02:15:09.531Z,0.44
2019-02-10T02:16:13.166Z,0.34
2019-02-10T02:17:16.771Z,0.24
2019-02-10T02:18:20.321Z,0.17
2019-02-10T02:19:23.953Z,0.06
2019-02-10T02:20:27.704Z,0.07
2019-02-10T02:21:31.342Z,0.08
2019-02-10T02:22:35.020Z,0.05
2019-02-10T02:23:38.587Z,0.09
2019-02-10T02:24:42.211Z,0.17
2019-02-10T02:25:45.918Z,0.19
2019-02-10T02:26:52.352Z,0.23
2019-02-10T02:27:56.011Z,0.30
2019-02-10T02:28:59.580Z,0.37
2019-02-10T02:30:03.668Z,0.36
2019-02-10T02:31:07.303Z,0.16
2019-02-10T02:32:10.936Z,0.09
2019-02-10T02:33:14.578Z,0.01
2019-02-10T02:34:18.147Z,-0.04
2019-02-10T02:35:21.781Z,-0.14
2019-02-10T02:36:25.432Z,-0.16
2019-02-10T02:37:29.001Z,-0.20
2019-02-10T02:38:32.737Z,-0.18
2019-02-10T02:39:36.388Z,-0.13
2019-02-10T02:40:40.022Z,-0.02
2019-02-10T02:41:43.512Z,0.08
2019-02-10T02:42:47.081Z,0.20
2019-02-10T02:43:50.752Z,0.30
2019-02-10T02:44:54.384Z,0.36
2019-02-10T02:45:58.032Z,0.23
2019-02-10T02:47:02.019Z,0.09
2019-02-10T02:48:05.663Z,0.00
2019-02-10T02:49:09.323Z,-0.13
2019-02-10T02:50:13.021Z,-0.22
2019-02-10T02:51:16.727Z,-0.15
2019-02-10T02:52:20.358Z,-0.18
2019-02-10T02:53:24.040Z,-0.21
2019-02-10T02:54:27.699Z,-0.27
2019-02-10T02:55:31.339Z,-0.17
2019-02-10T02:56:34.910Z,-0.10
2019-02-10T02:57:39.071Z,-0.06
2019-02-10T02:58:42.712Z,0.00
2019-02-10T02:59:46.443Z,0.05
2019-02-10T03:00:50.152Z,0.10
2019-02-10T03:01:53.865Z,0.11
2019-02-10T03:02:57.944Z,0.03
2019-02-10T03:04:01.657Z,-0.10
2019-02-10T03:05:07.442Z,-0.19
2019-02-10T03:06:11.070Z,-0.32
2019-02-10T03:07:17.979Z,-0.36
2019-02-10T03:08:20.016Z,-0.41
2019-02-10T03:09:23.656Z,-0.39
2019-02-10T03:10:27.321Z,-0.35
2019-02-10T03:11:31.387Z,-0.26
2019-02-10T03:12:35.093Z,-0.22
2019-02-10T03:13:38.836Z,-0.13
2019-02-10T03:14:42.504Z,-0.06
2019-02-10T03:15:46.530Z,0.00
2019-02-10T03:16:50.084Z,0.00
2019-02-10T03:17:53.808Z,-0.16
2019-02-10T03:18:57.447Z,-0.23
2019-02-10T03:20:01.087Z,-0.22
2019-02-10T03:21:04.777Z,-0.18
2019-02-10T03:22:08.422Z,-0.21
2019-02-10T03:23:12.061Z,-0.23
2019-02-10T03:24:15.701Z,-0.26
2019-02-10T03:25:19.343Z,-0.29
2019-02-10T03:26:23.366Z,-0.34
2019-02-10T03:27:27.005Z,-0.30
2019-02-10T03:28:30.677Z,-0.23
2019-02-10T03:29:34.288Z,-0.17
2019-02-10T03:30:37.855Z,-0.12
2019-02-10T03:31:41.533Z,-0.08
2019-02-10T03:32:45.251Z,-0.09
2019-02-10T03:33:48.961Z,-0.13
2019-02-10T03:34:52.788Z,-0.19
2019-02-10T03:35:56.488Z,-0.32
2019-02-10T03:37:00.169Z,-0.30
2019-02-10T03:38:03.808Z,-0.36
2019-02-10T03:39:07.469Z,-0.40
2019-02-10T03:40:11.787Z,-0.40
2019-02-10T03:41:15.377Z,-0.44
2019-02-10T03:42:19.438Z,-0.36
2019-02-10T03:43:23.088Z,-0.29
2019-02-10T03:44:26.843Z,-0.23
2019-02-10T03:45:30.509Z,-0.14
2019-02-10T03:46:34.220Z,-0.04
2019-02-10T03:47:37.957Z,0.03
2019-02-10T03:48:41.488Z,-0.08
2019-02-10T03:49:45.138Z,-0.26
2019-02-10T03:50:48.776Z,-0.32
2019-02-10T03:51:52.487Z,-0.27
2019-02-10T03:52:56.228Z,-0.27
2019-02-10T03:53:59.941Z,-0.33
2019-02-10T03:55:03.849Z,-0.41
2019-02-10T03:56:07.564Z,-0.44
2019-02-10T03:57:11.203Z,-0.49
2019-02-10T03:58:14.965Z,-0.45
2019-02-10T03:59:18.620Z,-0.41
2019-02-10T04:00:22.257Z,-0.40
2019-02-10T04:01:25.927Z,-0.46
2019-02-10T04:02:29.541Z,-0.50
2019-02-10T04:03:33.282Z,-0.42
2019-02-10T04:04:36.999Z,-0.32
2019-02-10T04:05:40.634Z,-0.35
2019-02-10T04:06:44.354Z,-0.52
2019-02-10T04:07:47.996Z,-0.59
2019-02-10T04:08:51.677Z,-0.60
2019-02-10T04:09:55.516Z,-0.67
2019-02-10T04:10:59.160Z,-0.75
2019-02-10T04:12:02.801Z,-0.79
2019-02-10T04:13:06.514Z,-0.83
2019-02-10T04:14:10.194Z,-0.92
2019-02-10T04:15:13.826Z,-0.83
2019-02-10T04:16:17.447Z,-0.72
2019-02-10T04:17:21.086Z,-0.59
2019-02-10T04:18:24.815Z,-0.52
2019-02-10T04:19:28.491Z,-0.48
2019-02-10T04:20:32.206Z,-0.41
2019-02-10T04:21:35.853Z,-0.46
2019-02-10T04:22:39.436Z,-0.51
2019-02-10T04:23:43.076Z,-0.58
2019-02-10T04:24:46.756Z,-0.59
2019-02-10T04:25:50.392Z,-0.65
2019-02-10T04:26:54.375Z,-0.77
2019-02-10T04:27:58.013Z,-0.86
2019-02-10T04:29:01.665Z,-0.88
2019-02-10T04:30:09.179Z,-0.85
2019-02-10T04:31:13.285Z,-0.88
2019-02-10T04:32:16.992Z,-0.80
2019-02-10T04:33:20.702Z,-0.72
2019-02-10T04:34:24.777Z,-0.63
2019-02-10T04:35:28.413Z,-0.65
2019-02-10T04:36:32.048Z,-0.68
2019-02-10T04:37:45.005Z,-0.66
2019-02-10T04:38:41.055Z,-0.82
2019-02-10T04:39:44.833Z,-0.88
2019-02-10T04:40:48.590Z,-0.93
2019-02-10T04:41:52.298Z,-1.04
2019-02-10T04:42:55.875Z,-1.19
2019-02-10T04:43:59.538Z,-1.32
2019-02-10T04:45:03.155Z,-1.37
2019-02-10T04:46:06.836Z,-1.36
2019-02-10T04:47:10.481Z,-1.36
2019-02-10T04:48:14.126Z,-1.39
2019-02-10T04:49:17.771Z,-1.37
2019-02-10T04:50:21.412Z,-1.27
2019-02-10T04:51:25.094Z,-1.16
2019-02-10T04:52:28.734Z,-1.02
2019-02-10T04:53:32.381Z,-0.89
2019-02-10T04:54:36.014Z,-0.81
2019-02-10T04:55:39.655Z,-0.78
2019-02-10T04:56:43.544Z,-0.91
2019-02-10T04:57:47.180Z,-1.02
2019-02-10T04:58:50.769Z,-1.04
2019-02-10T04:59:54.406Z,-1.15
2019-02-10T05:00:58.051Z,-1.34
2019-02-10T05:02:01.730Z,-1.38
2019-02-10T05:03:05.402Z,-1.39
2019-02-10T05:04:09.052Z,-1.46
2019-02-10T05:05:12.691Z,-1.53
2019-02-10T05:06:16.333Z,-1.62
2019-02-10T05:07:20.017Z,-1.59
2019-02-10T05:08:23.941Z,-1.51
2019-02-10T05:09:27.652Z,-1.41
2019-02-10T05:10:31.293Z,-1.34
2019-02-10T05:11:34.937Z,-1.30
2019-02-10T05:12:38.608Z,-1.21
2019-02-10T05:13:42.248Z,-1.17
2019-02-10T05:14:45.952Z,-1.23
2019-02-10T05:15:49.596Z,-1.47
2019-02-10T05:16:53.169Z,-1.54
2019-02-10T05:17:56.788Z,-1.54
2019-02-10T05:19:00.422Z,-1.56
2019-02-10T05:20:05.472Z,-1.56
2019-02-10T05:21:09.105Z,-1.62
2019-02-10T05:22:12.737Z,-1.65
2019-02-10T05:23:16.406Z,-1.67
2019-02-10T05:24:20.044Z,-1.62
2019-02-10T05:25:23.689Z,-1.56
2019-02-10T05:26:27.320Z,-1.54
2019-02-10T05:27:30.974Z,-1.64
2019-02-10T05:28:34.644Z,-1.72
2019-02-10T05:29:38.247Z,-1.60
2019-02-10T05:30:41.818Z,-1.47
2019-02-10T05:31:45.460Z,-1.39
2019-02-10T05:32:49.033Z,-1.27
2019-02-10T05:33:52.720Z,-1.22
2019-02-10T05:34:56.360Z,-1.14
2019-02-10T05:36:00.410Z,-1.17
2019-02-10T05:37:03.986Z,-1.24
2019-02-10T05:38:07.622Z,-1.28
2019-02-10T05:39:11.298Z,-1.30
2019-02-10T05:40:14.994Z,-1.28
2019-02-10T05:41:18.650Z,-1.22
2019-02-10T05:42:22.489Z,-1.05
2019-02-10T05:43:26.137Z,-0.92
2019-02-10T05:44:29.739Z,-0.81
2019-02-10T05:45:33.378Z,-0.77
2019-02-10T05:46:37.445Z,-0.83
2019-02-10T05:47:41.089Z,-0.82
2019-02-10T05:48:44.654Z,-0.82
2019-02-10T05:49:48.327Z,-0.86
2019-02-10T05:50:51.971Z,-0.90
2019-02-10T05:51:55.545Z,-0.90
2019-02-10T05:52:59.208Z,-0.93
2019-02-10T05:54:03.158Z,-0.92
2019-02-10T05:55:06.846Z,-0.88
2019-02-10T05:56:10.483Z,-0.77
2019-02-10T05:57:14.198Z,-0.75
2019-02-10T05:58:17.838Z,-0.78
2019-02-10T05:59:21.474Z,-0.88
2019-02-10T06:00:25.410Z,-0.91
2019-02-10T06:02:00.218Z,-1.00
2019-02-10T06:03:04.247Z,-1.03
2019-02-10T06:04:07.913Z,-1.02
2019-02-10T06:05:17.854Z,-0.96
2019-02-10T06:06:21.508Z,-0.95
2019-02-10T06:07:25.152Z,-0.94
2019-02-10T06:08:28.803Z,-1.06
2019-02-10T06:09:32.430Z,-1.11
2019-02-10T06:10:36.005Z,-1.05
2019-02-10T06:11:39.672Z,-1.01
2019-02-10T06:12:43.313Z,-1.07
2019-02-10T06:13:47.025Z,-1.07
2019-02-10T06:14:50.997Z,-1.04
2019-02-10T06:15:54.638Z,-0.93
2019-02-10T06:16:58.238Z,-0.76
2019-02-10T06:18:01.797Z,-0.64
2019-02-10T06:19:05.780Z,-0.67
2019-02-10T06:20:11.124Z,-0.74
2019-02-10T06:21:14.771Z,-0.75
2019-02-10T06:22:18.377Z,-0.84
2019-02-10T06:23:22.022Z,-0.87
2019-02-10T06:24:25.778Z,-0.80
2019-02-10T06:25:29.418Z,-0.79
2019-02-10T06:26:33.049Z,-0.80
2019-02-10T06:27:36.808Z,-0.88
2019-02-10T06:28:40.980Z,-0.91
2019-02-10T06:29:44.682Z,-0.89
2019-02-10T06:30:48.315Z,-0.87
2019-02-10T06:31:52.026Z,-0.73
2019-02-10T06:32:55.733Z,-0.64
2019-02-10T06:33:59.437Z,-0.55
2019-02-10T06:35:03.195Z,-0.41
2019-02-10T06:36:06.777Z,-0.41
2019-02-10T06:37:11.890Z,-0.55
2019-02-10T06:38:22.427Z,-0.63
2019-02-10T06:39:22.461Z,-0.61
2019-02-10T06:40:26.278Z,-0.60
2019-02-10T06:41:29.983Z,-0.60
2019-02-10T06:42:33.654Z,-0.65
2019-02-10T06:43:37.574Z,-0.65
2019-02-10T06:44:41.212Z,-0.62
2019-02-10T06:45:44.856Z,-0.59
2019-02-10T06:46:48.569Z,-0.59
2019-02-10T06:47:52.209Z,-0.49
2019-02-10T06:48:56.255Z,-0.47
2019-02-10T06:49:59.901Z,-0.41
2019-02-10T06:51:03.553Z,-0.48
2019-02-10T06:52:07.290Z,-0.51
2019-02-10T06:53:10.993Z,-0.38
2019-02-10T06:54:15.055Z,-0.26
2019-02-10T06:55:18.677Z,-0.22
2019-02-10T06:56:22.394Z,-0.22
2019-02-10T06:57:26.033Z,-0.19
2019-02-10T06:58:29.597Z,-0.14
2019-02-10T06:59:47.040Z,-0.12
2019-02-10T07:00:52.324Z,-0.07
2019-02-10T07:01:57.652Z,-0.06
2019-02-10T07:03:28.462Z,-0.03
2019-02-10T07:04:32.187Z,0.00
2019-02-10T07:05:35.938Z,0.07
2019-02-10T07:06:39.648Z,0.23
2019-02-10T07:07:43.301Z,0.23
2019-02-10T07:08:46.998Z,0.29
2019-02-10T07:09:50.710Z,0.43
2019-02-10T07:10:54.426Z,0.52
2019-02-10T07:11:58.032Z,0.51
2019-02-10T07:13:01.753Z,0.43
2019-02-10T07:14:06.015Z,0.49
2019-02-10T07:15:29.189Z,0.58
2019-02-10T07:16:38.884Z,0.66
2019-02-10T07:17:44.951Z,0.69
2019-02-10T07:19:24.947Z,0.72
2019-02-10T07:20:41.600Z,0.72
2019-02-10T07:21:45.283Z,0.86
2019-02-10T07:22:51.904Z,1.00
2019-02-10T07:24:01.649Z,1.17
2019-02-10T07:25:17.226Z,1.29
2019-02-10T07:26:23.910Z,1.41
2019-02-10T07:27:28.393Z,1.53
2019-02-10T07:28:39.700Z,1.52
2019-02-10T07:29:46.318Z,1.55
2019-02-10T07:30:55.498Z,1.71
2019-02-10T07:31:59.201Z,1.93
2019-02-10T07:33:05.145Z,2.11
2019-02-10T07:34:17.905Z,2.17
2019-02-10T07:35:35.777Z,2.44
2019-02-10T07:36:42.461Z,2.70
2019-02-10T07:37:55.342Z,2.91
2019-02-10T07:39:09.488Z,2.95
2019-02-10T07:40:28.250Z,2.96
2019-02-10T07:41:46.564Z,3.00
2019-02-10T07:43:09.657Z,2.92
2019-02-10T07:44:28.478Z,3.15
2019-02-10T07:45:46.429Z,3.21
2019-02-10T07:47:17.432Z,3.48
2019-02-10T07:48:26.659Z,3.71
2019-02-10T07:50:05.391Z,3.58
2019-02-10T07:51:17.648Z,3.52
2019-02-10T07:52:24.305Z,3.80
2019-02-10T07:53:43.068Z,3.97
2019-02-10T07:54:49.628Z,4.06
2019-02-10T07:56:16.045Z,4.15
2019-02-10T07:57:25.445Z,4.25
2019-02-10T07:58:34.772Z,4.46
2019-02-10T07:59:47.262Z,4.60
2019-02-10T08:00:53.820Z,4.76
2019-02-10T08:02:23.920Z,4.74
2019-02-10T08:03:36.574Z,4.91
2019-02-10T08:04:43.134Z,5.15
2019-02-10T08:05:52.569Z,5.29
2019-02-10T08:07:09.246Z,5.34
2019-02-10T08:08:31.220Z,5.44
2019-02-10T08:09:46.487Z,5.56
2019-02-10T08:11:04.979Z,5.72
2019-02-10T08:12:31.274Z,5.84
2019-02-10T08:13:47.105Z,5.98
2019-02-10T08:14:59.312Z,5.81
2019-02-10T08:16:09.375Z,5.72
2019-02-10T08:17:37.031Z,6.06
2019-02-10T08:18:46.676Z,6.10
2019-02-10T08:19:53.391Z,6.34
2019-02-10T08:20:59.950Z,6.62
2019-02-10T08:22:06.475Z,6.92
2019-02-10T08:23:18.610Z,6.82
2019-02-10T08:24:25.243Z,7.03
2019-02-10T08:25:40.835Z,7.32
2019-02-10T08:26:50.421Z,7.52
2019-02-10T08:28:03.001Z,7.80
2019-02-10T08:29:24.766Z,8.06
2019-02-10T08:30:52.164Z,8.24
2019-02-10T08:32:23.113Z,8.26
2019-02-10T08:33:29.677Z,8.24
2019-02-10T08:35:02.045Z,8.51
2019-02-10T08:36:20.631Z,8.65
2019-02-10T08:37:42.028Z,8.96
2019-02-10T08:39:04.005Z,9.13
2019-02-10T08:40:22.664Z,9.37
2019-02-10T08:41:35.138Z,9.54
2019-02-10T08:43:02.470Z,9.69
2019-02-10T08:44:15.074Z,9.75
2019-02-10T08:45:24.524Z,9.57
2019-02-10T08:46:37.051Z,9.71
2019-02-10T08:47:49.288Z,9.76
2019-02-10T08:49:01.749Z,9.87
2019-02-10T08:50:20.422Z,10.07
2019-02-10T08:51:39.222Z,10.01
2019-02-10T08:52:54.732Z,9.87
2019-02-10T08:53:58.476Z,9.77
2019-02-10T08:55:02.515Z,9.82
2019-02-10T08:56:06.310Z,10.13
2019-02-10T08:57:10.403Z,10.40
2019-02-10T08:58:14.206Z,10.60
2019-02-10T08:59:17.847Z,10.72
2019-02-10T09:00:21.495Z,10.58
2019-02-10T09:01:25.062Z,10.83
2019-02-10T09:02:28.729Z,10.95
2019-02-10T09:03:32.443Z,11.22
2019-02-10T09:04:36.084Z,11.41
2019-02-10T09:05:39.717Z,11.57
2019-02-10T09:06:43.448Z,11.45
2019-02-10T09:07:47.119Z,11.36
2019-02-10T09:08:50.776Z,11.39
2019-02-10T09:09:54.426Z,11.85
2019-02-10T09:10:58.132Z,11.85
2019-02-10T09:12:01.770Z,12.07
2019-02-10T09:13:05.519Z,11.78
2019-02-10T09:14:09.184Z,11.65
2019-02-10T09:15:13.181Z,11.68
2019-02-10T09:16:16.821Z,11.68
2019-02-10T09:17:20.477Z,11.82
2019-02-10T09:18:24.221Z,11.68
2019-02-10T09:19:27.940Z,11.67
2019-02-10T09:20:31.588Z,12.42
2019-02-10T09:21:35.358Z,12.60
2019-02-10T09:22:39.462Z,12.60
2019-02-10T09:23:43.479Z,13.10
2019-02-10T09:24:47.062Z,13.15
2019-02-10T09:25:50.707Z,12.96
2019-02-10T09:26:54.357Z,12.96
2019-02-10T09:27:58.002Z,12.49
2019-02-10T09:29:01.604Z,12.39
2019-02-10T09:30:08.719Z,12.89
2019-02-10T09:31:12.368Z,12.90
2019-02-10T09:32:16.089Z,13.40
2019-02-10T09:33:19.788Z,13.40
2019-02-10T09:34:23.543Z,13.99
2019-02-10T09:35:27.267Z,14.35
2019-02-10T09:36:30.769Z,14.48
2019-02-10T09:37:34.485Z,14.31
2019-02-10T09:38:38.135Z,13.94
2019-02-10T09:39:41.805Z,13.57
2019-02-10T09:40:45.468Z,13.77
2019-02-10T09:41:49.120Z,14.22
2019-02-10T09:42:53.293Z,14.37
2019-02-10T09:43:59.189Z,14.29
2019-02-10T09:45:02.875Z,14.29
2019-02-10T09:46:06.515Z,14.08
2019-02-10T09:47:11.781Z,13.88
2019-02-10T09:48:15.599Z,13.80
2019-02-10T09:49:19.303Z,14.08
2019-02-10T09:50:23.075Z,14.56
2019-02-10T09:51:27.116Z,14.90
2019-02-10T09:52:30.847Z,15.07
2019-02-10T09:53:34.534Z,15.62
2019-02-10T09:54:38.239Z,15.62
2019-02-10T09:55:42.266Z,15.65
2019-02-10T09:56:45.896Z,16.00
2019-02-10T09:57:49.646Z,16.12
2019-02-10T09:58:53.339Z,16.41
2019-02-10T09:59:57.114Z,16.82
2019-02-10T10:01:00.799Z,16.78
2019-02-10T10:02:04.497Z,16.74
2019-02-10T10:03:08.262Z,17.04
2019-02-10T10:04:11.898Z,17.20
2019-02-10T10:05:15.552Z,17.12
2019-02-10T10:06:19.197Z,17.07
2019-02-10T10:07:22.891Z,17.36
2019-02-10T10:08:26.610Z,17.52
2019-02-10T10:09:30.247Z,17.54
2019-02-10T10:10:34.278Z,17.75
2019-02-10T10:11:37.979Z,17.57
2019-02-10T10:12:41.628Z,17.51
2019-02-10T10:13:45.296Z,17.71
2019-02-10T10:14:48.930Z,17.46
2019-02-10T10:15:52.709Z,17.49
2019-02-10T10:16:56.533Z,17.09
2019-02-10T10:18:00.154Z,17.29
2019-02-10T10:19:03.831Z,17.74
2019-02-10T10:20:10.675Z,17.92
2019-02-10T10:21:14.421Z,18.06
2019-02-10T10:22:18.083Z,18.27
2019-02-10T10:23:21.740Z,18.54
2019-02-10T10:24:25.533Z,18.71
2019-02-10T10:25:29.183Z,18.30
2019-02-10T10:26:32.892Z,17.97
2019-02-10T10:27:36.665Z,17.33
2019-02-10T10:28:40.328Z,16.40
2019-02-10T10:29:43.997Z,16.17
2019-02-10T10:30:47.699Z,16.16
2019-02-10T10:31:51.413Z,16.01
2019-02-10T10:32:55.247Z,15.69
2019-02-10T10:33:58.949Z,15.51
2019-02-10T10:35:02.648Z,15.27
2019-02-10T10:36:06.300Z,15.01
2019-02-10T10:37:10.060Z,14.99
2019-02-10T10:38:13.625Z,15.14
2019-02-10T10:39:17.370Z,15.16
2019-02-10T10:40:21.111Z,15.14
2019-02-10T10:41:24.849Z,14.88
2019-02-10T10:42:28.617Z,15.25
2019-02-10T10:43:32.241Z,15.36
2019-02-10T10:44:36.367Z,15.01
2019-02-10T10:45:40.217Z,14.98
2019-02-10T10:46:43.978Z,15.09
2019-02-10T10:47:47.677Z,15.22
2019-02-10T10:48:51.347Z,15.12
2019-02-10T10:49:55.446Z,15.40
2019-02-10T10:50:59.560Z,15.40
2019-02-10T10:52:03.281Z,15.73
2019-02-10T10:53:06.988Z,16.09
2019-02-10T10:54:10.760Z,16.34
2019-02-10T10:55:14.608Z,16.46
2019-02-10T10:56:18.368Z,16.52
2019-02-10T10:57:22.151Z,16.85
2019-02-10T10:58:25.788Z,16.98
2019-02-10T10:59:29.559Z,17.51
2019-02-10T11:00:33.276Z,17.64
2019-02-10T11:01:37.284Z,17.81
2019-02-10T11:02:41.062Z,18.24
2019-02-10T11:03:44.763Z,18.59
2019-02-10T11:04:48.810Z,19.05
2019-02-10T11:05:52.520Z,19.33
2019-02-10T11:06:56.224Z,19.90
2019-02-10T11:08:00.540Z,20.46
2019-02-10T11:09:05.130Z,20.59
2019-02-10T11:10:12.991Z,20.42
2019-02-10T11:11:16.738Z,20.59
2019-02-10T11:12:20.445Z,20.84
2019-02-10T11:13:24.239Z,20.97
2019-02-10T11:14:28.050Z,20.87
2019-02-10T11:15:31.713Z,21.32
2019-02-10T11:16:36.446Z,21.77
2019-02-10T11:17:40.438Z,22.20
2019-02-10T11:18:44.116Z,22.05
2019-02-10T11:19:47.802Z,21.91
2019-02-10T11:20:53.025Z,21.80
2019-02-10T11:21:56.710Z,22.28
2019-02-10T11:23:00.863Z,21.95
2019-02-10T11:24:04.601Z,21.72
2019-02-10T11:25:10.789Z,21.77
2019-02-10T11:26:14.475Z,21.87
2019-02-10T11:27:18.132Z,21.93
2019-02-10T11:28:21.853Z,22.04
2019-02-10T11:29:25.619Z,22.57
2019-02-10T11:30:29.230Z,22.98
2019-02-10T11:31:32.867Z,23.49
2019-02-10T11:32:36.528Z,23.80
2019-02-10T11:33:40.226Z,23.95
2019-02-10T11:34:46.159Z,24.19
2019-02-10T11:35:49.262Z,24.38
2019-02-10T11:36:52.913Z,23.95
2019-02-10T11:37:56.672Z,23.43
2019-02-10T11:39:00.346Z,22.80
2019-02-10T11:40:05.409Z,22.65
2019-02-10T11:41:09.435Z,22.67
2019-02-10T11:42:13.394Z,22.60
2019-02-10T11:43:17.170Z,22.75
2019-02-10T11:44:20.735Z,23.03
2019-02-10T11:45:25.049Z,23.47
2019-02-10T11:46:28.699Z,23.79
2019-02-10T11:47:32.345Z,23.58
2019-02-10T11:48:36.996Z,23.64
2019-02-10T11:49:40.763Z,23.27
2019-02-10T11:50:44.508Z,23.31
2019-02-10T11:51:48.233Z,23.40
2019-02-10T11:52:51.869Z,23.35
2019-02-10T11:54:01.372Z,23.33
2019-02-10T11:55:06.719Z,23.27
2019-02-10T11:56:10.481Z,23.13
2019-02-10T11:57:14.190Z,22.80
2019-02-10T11:58:17.828Z,22.83
2019-02-10T11:59:21.470Z,23.05
2019-02-10T12:00:25.118Z,23.45
2019-02-10T12:01:29.356Z,23.58
2019-02-10T12:02:38.060Z,23.80
2019-02-10T12:03:38.372Z,24.26
2019-02-10T12:04:42.018Z,24.46
2019-02-10T12:05:46.020Z,24.08
2019-02-10T12:06:49.780Z,24.18
2019-02-10T12:07:53.429Z,24.16
2019-02-10T12:08:57.066Z,24.25
2019-02-10T12:10:00.776Z,24.41
2019-02-10T12:11:04.454Z,24.31
2019-02-10T12:12:08.192Z,24.46
2019-02-10T12:13:11.905Z,24.49
2019-02-10T12:14:15.572Z,24.37
2019-02-10T12:15:19.218Z,24.07
2019-02-10T12:16:22.859Z,24.05
2019-02-10T12:17:26.505Z,24.07
2019-02-10T12:18:30.146Z,24.00
2019-02-10T12:19:33.825Z,23.86
2019-02-10T12:20:37.462Z,23.57
2019-02-10T12:21:41.026Z,23.54
2019-02-10T12:22:49.990Z,23.64
2019-02-10T12:23:50.042Z,23.49
2019-02-10T12:24:53.722Z,23.69
2019-02-10T12:25:57.362Z,23.93
2019-02-10T12:27:01.446Z,24.05
2019-02-10T12:28:05.094Z,24.29
2019-02-10T12:29:08.910Z,24.02
2019-02-10T12:30:16.663Z,23.52
2019-02-10T12:31:20.309Z,23.74
2019-02-10T12:32:23.952Z,24.17
2019-02-10T12:33:28.005Z,24.69
2019-02-10T12:34:31.663Z,24.97
2019-02-10T12:35:35.317Z,25.18
2019-02-10T12:36:38.956Z,25.39
2019-02-10T12:37:48.011Z,25.71
2019-02-10T12:38:51.846Z,25.85
2019-02-10T12:39:59.752Z,25.52
2019-02-10T12:41:00.998Z,25.08
2019-02-10T12:42:04.775Z,25.00
2019-02-10T12:43:09.114Z,25.17
2019-02-10T12:44:12.911Z,24.98
2019-02-10T12:45:16.619Z,25.08
2019-02-10T12:46:20.353Z,25.03
2019-02-10T12:47:23.989Z,25.07
2019-02-10T12:48:34.589Z,24.89
2019-02-10T12:49:38.266Z,24.72
2019-02-10T12:50:41.962Z,24.28
2019-02-10T12:51:46.568Z,24.20
2019-02-10T12:52:50.274Z,24.27
2019-02-10T12:53:54.320Z,24.23
2019-02-10T12:54:58.053Z,24.18
2019-02-10T12:56:01.788Z,24.03
2019-02-10T12:57:05.563Z,23.95
2019-02-10T12:58:09.338Z,23.82
2019-02-10T12:59:13.059Z,23.48
2019-02-10T13:00:20.638Z,23.22
2019-02-10T13:01:24.290Z,22.84
2019-02-10T13:02:28.029Z,22.80
2019-02-10T13:03:31.621Z,22.84
2019-02-10T13:04:35.339Z,22.73
2019-02-10T13:05:38.971Z,22.82
2019-02-10T13:06:42.762Z,22.78
2019-02-10T13:07:46.402Z,22.61
2019-02-10T13:08:50.192Z,22.74
2019-02-10T13:09:53.897Z,22.57
2019-02-10T13:10:57.532Z,22.73
2019-02-10T13:12:01.649Z,22.94
2019-02-10T13:13:05.409Z,23.14
2019-02-10T13:14:09.037Z,23.13
2019-02-10T13:15:13.693Z,23.56
2019-02-10T13:16:17.426Z,23.41
2019-02-10T13:17:21.012Z,23.57
2019-02-10T13:18:24.761Z,23.91
2019-02-10T13:19:28.466Z,23.91
2019-02-10T13:20:32.190Z,23.98
2019-02-10T13:21:35.828Z,24.01
2019-02-10T13:22:39.470Z,24.21
2019-02-10T13:23:43.219Z,24.40
2019-02-10T13:24:46.929Z,24.38
2019-02-10T13:25:50.707Z,24.30
2019-02-10T13:26:54.364Z,24.09
2019-02-10T13:27:58.008Z,23.84
2019-02-10T13:29:01.699Z,24.01
2019-02-10T13:30:08.253Z,23.87
2019-02-10T13:31:11.970Z,23.99
2019-02-10T13:32:15.676Z,24.08
2019-02-10T13:33:19.706Z,24.23
2019-02-10T13:34:23.381Z,24.22
2019-02-10T13:35:27.017Z,24.02
2019-02-10T13:36:30.734Z,23.54
2019-02-10T13:37:34.464Z,23.24
2019-02-10T13:38:38.233Z,23.11
2019-02-10T13:39:41.902Z,23.15
2019-02-10T13:40:45.616Z,23.14
2019-02-10T13:41:47.974Z,23.15
2019-02-10T13:42:51.612Z,23.08
2019-02-10T13:43:55.181Z,23.19
2019-02-10T13:44:59.188Z,23.05
2019-02-10T13:46:02.991Z,22.96
2019-02-10T13:47:06.676Z,23.00
2019-02-10T13:48:10.832Z,22.91
2019-02-10T13:49:14.446Z,22.90
2019-02-10T13:50:19.099Z,22.90
2019-02-10T13:51:22.836Z,22.95
2019-02-10T13:52:28.445Z,22.99
2019-02-10T13:53:32.367Z,23.04
2019-02-10T13:54:36.053Z,22.99
2019-02-10T13:55:39.958Z,23.04
2019-02-10T13:56:43.733Z,23.16
2019-02-10T13:57:47.811Z,23.08
2019-02-10T13:58:51.531Z,22.92
2019-02-10T13:59:55.735Z,22.73
2019-02-10T14:01:00.299Z,22.78
2019-02-10T14:02:03.944Z,22.56
2019-02-10T14:03:08.166Z,22.13
2019-02-10T14:04:11.821Z,21.58
2019-02-10T14:05:15.629Z,21.06
2019-02-10T14:06:19.366Z,20.53
2019-02-10T14:07:22.916Z,20.53